createdAt,value
2023-01-27T00:04:54.854Z,52.40
2023-01-27T00:09:58.269Z,47.20
2023-01-27T00:15:09.654Z,54.70
2023-01-27T00:20:12.944Z,64.10
2023-01-27T00:25:15.147Z,57.30
2023-01-27T00:30:17.008Z,58.70
2023-01-27T00:35:19.422Z,50.20
2023-01-27T00:40:21.297Z,49.20
2023-01-27T00:45:41.849Z,50.50
2023-01-27T00:50:43.706Z,84.50
2023-01-27T00:55:47.330Z,131.80
2023-01-27T01:00:49.352Z,87.40
2023-01-27T01:05:52.796Z,61.50
2023-01-27T01:10:54.631Z,74.80
2023-01-27T01:15:57.427Z,92.40
2023-01-27T01:20:59.503Z,89.90
2023-01-27T01:26:01.255Z,83.80
2023-01-27T01:31:07.134Z,119.70
2023-01-27T01:36:12.414Z,89.00
2023-01-27T01:41:18.356Z,86.10
2023-01-27T01:46:21.644Z,74.70
2023-01-27T01:51:34.926Z,74.00
2023-01-27T01:56:41.056Z,58.80
2023-01-27T02:01:43.128Z,55.50
2023-01-27T02:07:11.773Z,76.70
2023-01-27T02:12:13.580Z,39.40
2023-01-27T02:17:16.519Z,52.00
2023-01-27T02:22:44.503Z,37.60
2023-01-27T02:27:46.266Z,43.80
2023-01-27T02:32:48.036Z,68.00
2023-01-27T02:37:51.895Z,63.10
2023-01-27T02:42:56.682Z,51.80
2023-01-27T02:47:58.557Z,47.60
2023-01-27T02:53:00.322Z,30.80
2023-01-27T02:58:02.359Z,53.30
2023-01-27T03:03:24.367Z,68.60
2023-01-27T03:08:26.112Z,63.60
2023-01-27T03:13:28.883Z,63.40
2023-01-27T03:18:30.555Z,59.30
2023-01-27T03:23:36.232Z,99.00
2023-01-27T03:28:38.989Z,70.40
2023-01-27T03:33:47.740Z,64.60
2023-01-27T03:39:20.839Z,70.60
2023-01-27T03:44:41.436Z,81.90
2023-01-27T03:49:43.141Z,104.50
2023-01-27T03:54:44.871Z,86.40
2023-01-27T03:59:46.695Z,87.10
2023-01-27T04:05:07.288Z,80.70
2023-01-27T04:10:10.032Z,87.90
2023-01-27T04:15:12.114Z,74.60
2023-01-27T04:20:14.174Z,79.30
2023-01-27T04:25:16.255Z,92.70
2023-01-27T04:30:18.309Z,54.20
2023-01-27T04:35:23.345Z,53.50
2023-01-27T04:40:27.325Z,71.20
2023-01-27T04:45:29.174Z,72.40
2023-01-27T04:50:31.191Z,57.90
2023-01-27T04:55:33.126Z,63.30
2023-01-27T05:00:34.878Z,63.60
2023-01-27T05:05:37.971Z,74.20
2023-01-27T05:10:39.692Z,66.50
2023-01-27T05:15:41.509Z,59.90
2023-01-27T05:20:43.291Z,66.10
2023-01-27T05:25:45.336Z,55.40
2023-01-27T05:30:47.176Z,57.80
2023-01-27T05:35:48.889Z,63.90
2023-01-27T05:40:55.366Z,62.80
2023-01-27T05:46:18.981Z,69.50
2023-01-27T05:51:22.853Z,68.40
2023-01-27T05:56:26.570Z,58.30
2023-01-27T06:01:31.145Z,63.90
2023-01-27T06:06:34.088Z,56.20
2023-01-27T06:11:35.859Z,57.00
2023-01-27T06:16:37.619Z,55.20
2023-01-27T06:21:39.449Z,47.70
2023-01-27T06:26:41.226Z,48.10
2023-01-27T06:31:42.963Z,54.10
2023-01-27T06:36:44.960Z,41.90
2023-01-27T06:41:46.635Z,45.60
2023-01-27T06:46:48.561Z,47.90
2023-01-27T06:51:50.257Z,26.50
2023-01-27T06:56:52.108Z,34.10
2023-01-27T07:01:53.855Z,40.70
2023-01-27T07:06:55.992Z,36.30
2023-01-27T07:11:57.765Z,40.70
2023-01-27T07:16:59.504Z,39.60
2023-01-27T07:22:01.320Z,42.70
2023-01-27T07:27:03.301Z,39.90
2023-01-27T07:32:05.211Z,54.30
2023-01-27T07:37:07.513Z,48.30
2023-01-27T07:42:10.243Z,54.10
2023-01-27T07:47:12.052Z,42.70
2023-01-27T07:52:13.763Z,43.60
2023-01-27T07:57:15.604Z,52.80
2023-01-27T08:02:17.583Z,56.50
2023-01-27T08:07:19.565Z,47.90
2023-01-27T08:12:21.216Z,41.10
2023-01-27T08:17:22.879Z,47.60
2023-01-27T08:22:24.753Z,45.40
2023-01-27T08:27:26.630Z,51.00
2023-01-27T08:32:28.306Z,38.20
2023-01-27T08:37:30.088Z,35.10
2023-01-27T08:42:31.801Z,54.40
2023-01-27T08:47:33.536Z,50.40
2023-01-27T08:52:35.866Z,64.30
2023-01-27T08:57:37.866Z,50.20
2023-01-27T09:02:39.899Z,44.80
2023-01-27T09:07:41.682Z,30.10
2023-01-27T09:12:44.676Z,42.60
2023-01-27T09:17:47.215Z,49.00
2023-01-27T09:22:49.434Z,55.50
2023-01-27T09:27:59.475Z,56.70
2023-01-27T09:33:01.700Z,48.40
2023-01-27T09:38:06.681Z,41.10
2023-01-27T09:48:27.327Z,41.30
2023-01-27T09:53:38.241Z,29.20
2023-01-27T09:58:54.752Z,67.20
2023-01-27T10:04:32.235Z,69.80
2023-01-27T10:09:54.276Z,42.40
2023-01-27T10:15:33.332Z,48.50
2023-01-27T10:20:55.653Z,50.40
2023-01-27T10:26:02.353Z,50.20
2023-01-27T10:31:27.130Z,54.60
2023-01-27T10:36:36.478Z,33.70
2023-01-27T10:41:44.869Z,32.70
2023-01-27T10:47:35.072Z,54.80
2023-01-27T10:52:45.202Z,55.70
2023-01-27T10:58:10.786Z,54.50
2023-01-27T11:03:21.487Z,61.90
2023-01-27T11:08:28.283Z,65.00
2023-01-27T11:13:32.199Z,46.10
2023-01-27T11:18:38.155Z,54.40
2023-01-27T11:23:49.027Z,46.70
2023-01-27T11:29:00.658Z,49.70
2023-01-27T11:34:21.089Z,51.20
2023-01-27T11:39:23.595Z,57.40
2023-01-27T11:44:29.297Z,56.60
2023-01-27T11:49:35.474Z,36.10
2023-01-27T11:54:43.571Z,51.00
2023-01-27T11:59:46.176Z,27.90
2023-01-27T12:05:04.114Z,29.00
2023-01-27T12:10:24.679Z,50.90
2023-01-27T12:15:30.070Z,153.30
2023-01-27T12:20:36.022Z,67.40
2023-01-27T12:25:45.634Z,55.20
2023-01-27T12:30:48.092Z,69.00
2023-01-27T12:35:50.899Z,76.10
2023-01-27T12:41:05.312Z,84.30
2023-01-27T12:46:13.281Z,125.90
2023-01-27T12:51:16.449Z,79.10
2023-01-27T12:56:22.390Z,58.50
2023-01-27T13:01:24.751Z,48.00
2023-01-27T13:06:39.436Z,52.70
2023-01-27T13:11:41.303Z,63.80
2023-01-27T13:16:52.941Z,59.80
2023-01-27T13:21:55.321Z,65.70
2023-01-27T13:26:57.914Z,52.60
2023-01-27T13:32:23.636Z,51.00
2023-01-27T13:37:48.556Z,54.00
2023-01-27T13:43:03.138Z,47.60
2023-01-27T13:48:08.601Z,62.50
2023-01-27T13:53:12.857Z,47.40
2023-01-27T13:58:31.585Z,43.70
2023-01-27T14:03:52.181Z,44.50
2023-01-27T14:09:03.195Z,47.10
2023-01-27T14:19:21.502Z,33.00
2023-01-27T14:24:45.136Z,39.30
2023-01-27T14:30:05.548Z,35.50
2023-01-27T14:35:27.710Z,37.40
2023-01-27T14:40:46.175Z,33.10
2023-01-27T14:45:56.485Z,36.30
2023-01-27T14:51:13.288Z,23.70
2023-01-27T14:56:30.752Z,32.40
2023-01-27T15:01:55.129Z,36.80
2023-01-27T15:07:16.373Z,27.90
2023-01-27T15:12:18.141Z,23.80
2023-01-27T15:17:41.236Z,28.70
2023-01-27T15:23:12.384Z,28.50
2023-01-27T15:28:18.174Z,24.50
2023-01-27T15:33:48.659Z,26.90
2023-01-27T15:44:32.389Z,12.80
2023-01-27T15:49:43.071Z,26.60
2023-01-27T15:54:50.224Z,23.60
2023-01-27T15:59:59.092Z,17.60
2023-01-27T16:05:27.437Z,24.70
2023-01-27T16:10:34.247Z,23.60
2023-01-27T16:15:37.015Z,28.20
2023-01-27T16:20:41.775Z,26.40
2023-01-27T16:25:50.850Z,34.60
2023-01-27T16:31:01.726Z,34.20
2023-01-27T16:36:31.326Z,45.00
2023-01-27T16:41:39.060Z,47.10
2023-01-27T16:46:55.639Z,43.80
2023-01-27T16:52:01.719Z,55.80
2023-01-27T17:02:32.082Z,42.30
2023-01-27T17:07:34.744Z,36.60
2023-01-27T17:12:43.161Z,35.50
2023-01-27T17:17:45.366Z,22.60
2023-01-27T17:22:53.060Z,31.00
2023-01-27T17:27:56.043Z,44.70
2023-01-27T17:33:00.324Z,49.90
2023-01-27T17:38:14.244Z,40.20
2023-01-27T17:43:34.434Z,37.60
2023-01-27T17:48:40.995Z,31.90
2023-01-27T17:53:43.114Z,33.00
2023-01-27T17:58:46.565Z,35.90
2023-01-27T18:03:53.869Z,43.20
2023-01-27T18:08:57.918Z,19.10
2023-01-27T18:14:07.666Z,37.20
2023-01-27T18:19:22.412Z,27.00
2023-01-27T18:24:24.479Z,29.30
2023-01-27T18:29:47.122Z,26.70
2023-01-27T18:34:50.189Z,17.10
2023-01-27T18:39:52.202Z,18.70
2023-01-27T18:44:55.170Z,21.50
2023-01-27T18:50:20.023Z,39.20
2023-01-27T18:55:27.432Z,54.00
2023-01-27T19:00:36.182Z,61.40
2023-01-27T19:05:38.021Z,102.70
2023-01-27T19:10:39.830Z,66.00
2023-01-27T19:15:50.267Z,42.90
2023-01-27T19:20:52.260Z,27.40
2023-01-27T19:25:56.841Z,39.50
2023-01-27T19:30:59.321Z,37.50
2023-01-27T19:36:12.675Z,37.30
2023-01-27T19:41:15.083Z,24.20
2023-01-27T19:46:22.515Z,31.80
2023-01-27T19:51:24.638Z,28.20
2023-01-27T19:56:30.796Z,30.90
2023-01-27T20:01:32.840Z,19.50
2023-01-27T20:06:34.728Z,27.20
2023-01-27T20:11:41.982Z,15.10
2023-01-27T20:16:43.917Z,27.50
2023-01-27T20:21:46.808Z,23.70
2023-01-27T20:26:48.905Z,24.50
2023-01-27T20:31:52.130Z,20.30
2023-01-27T20:36:54.389Z,23.10
2023-01-27T20:41:56.371Z,29.40
2023-01-27T20:46:58.254Z,19.30
2023-01-27T20:52:00.128Z,23.10
2023-01-27T20:57:01.861Z,28.40
2023-01-27T21:02:03.752Z,23.80
2023-01-27T21:07:06.127Z,28.10
2023-01-27T21:12:07.958Z,34.00
2023-01-27T21:17:09.929Z,36.20
2023-01-27T21:22:11.661Z,38.50
2023-01-27T21:27:13.398Z,32.50
2023-01-27T21:32:15.057Z,38.90
2023-01-27T21:37:16.844Z,34.90
2023-01-27T21:42:18.701Z,41.30
2023-01-27T21:47:20.500Z,28.10
2023-01-27T21:52:23.706Z,36.70
2023-01-27T21:57:25.414Z,30.40
2023-01-27T22:02:29.380Z,31.10
2023-01-27T22:07:34.336Z,40.00
2023-01-27T22:12:39.409Z,35.70
2023-01-27T22:17:41.169Z,38.70
2023-01-27T22:22:44.557Z,43.60
2023-01-27T22:27:48.899Z,34.70
2023-01-27T22:32:50.920Z,39.60
2023-01-27T22:37:53.151Z,29.70
2023-01-27T22:42:55.065Z,30.60
2023-01-27T22:47:57.744Z,34.30
2023-01-27T22:52:59.400Z,28.80
2023-01-27T22:58:01.071Z,29.70
2023-01-27T23:03:02.768Z,32.40
2023-01-27T23:08:04.753Z,36.50
2023-01-27T23:13:06.888Z,32.20
2023-01-27T23:18:11.431Z,35.60
2023-01-27T23:23:14.890Z,30.40
2023-01-27T23:28:18.180Z,56.50
2023-01-27T23:33:20.752Z,33.00
2023-01-27T23:38:32.060Z,47.00
2023-01-27T23:43:34.972Z,25.20
2023-01-27T23:48:36.949Z,43.20
2023-01-27T23:53:38.755Z,42.00
2023-01-27T23:58:40.481Z,49.60
